• Join FlightAware (Why Join?)
  • Login
  • US Flag 
05:07AM EDT


 

Airport Tracker/Info


-or-


 

Live Flight TrackerFlight Track Log ✈ UPS1125 ✈ 16-Dec-2013 ✈ KJFK - KRFD

Flight Track Log - Related Links

Times and Time Zones

All times are in EST time to prevent confusion due to time zone crossing. See the UPS1125 flight status page for this flight to view local times or setup timezone preferences in your user account.

Time Position Orientation Groundspeed Altitude Reporting Facility
EST Latitude Longitude Course Direction KTS MPH feet Rate Location/Type
10:42PM 40.6583 -73.9421 North  Level Estimated
10:43PM 40.6823 -74.0830 North  Level Estimated
10:44PM 40.7061 -74.2241 North  Level Estimated
10:45PM 40.7297 -74.3653 281° West  Level Estimated
10:46PM 40.7532 -74.5065 285° West  Level Estimated
10:46PM 40.6732 -73.5855 285° West 367 422 14,600  Level FlightAware ADS-B (KSNC)
10:47PM 40.7737 -73.5425 18° North 377 434 16,700 1,260 Climbing FlightAware ADS-B (KSNC)
10:48PM 40.8341 -73.5261 12° North 350 403 16,700  Level FlightAware ADS-B (KSNC)
10:48PM 40.8654 -73.5346 348° North 335 386 16,700  Level FlightAware ADS-B (KSNC)
10:48PM 40.8944 -73.5520 336° Northwest 353 406 16,700 540 Level FlightAware ADS-B (KSNC)
10:49PM 40.9504 -73.6079 323° Northwest 380 437 17,300 1,560 Climbing FlightAware ADS-B (KSNC)
10:50PM 41.0088 -73.6684 322° Northwest 390 449 18,900 1,920 Climbing FlightAware ADS-B (KSNC)
10:51PM 41.0803 -73.7426 322° Northwest 395 455 20,300 1,980 Climbing FlightAware ADS-B (KSNC)
10:51PM 41.1105 -73.7899 310° West 379 436 21,500 1,800 Climbing FlightAware ADS-B (KSNC)
10:51PM 41.1274 -73.8469 292° West 365 420 21,900 720 Climbing FlightAware ADS-B (KSNC)
10:52PM 41.1313 -73.8764 280° West 362 417 22,000 240 Climbing FlightAware ADS-B
10:52PM 41.1320 -73.8913 274° West 359 413 22,000  Level FlightAware ADS-B (KSNC)
10:52PM 41.1313 -73.9178 268° West 357 411 22,000  Level FlightAware ADS-B
10:52PM 41.1293 -73.9367 262° West 358 412 22,000 900 Level FlightAware ADS-B
10:53PM 41.1197 -74.0023 259° West 363 418 22,600 1,320 Climbing FlightAware ADS-B
10:53PM 41.1091 -74.0728 259° West 367 422 23,400 1,560 Climbing FlightAware ADS-B
10:54PM 41.0986 -74.1416 259° West 369 425 24,300 1,500 Climbing FlightAware ADS-B
10:54PM 41.0843 -74.2351 259° West 373 429 25,200 1,200 Climbing FlightAware ADS-B
10:55PM 41.0682 -74.3401 259° West 384 442 26,100 1,020 Climbing FlightAware ADS-B
10:56PM 41.0528 -74.4333 259° West 378 435 26,900 1,380 Climbing New York Center
10:57PM 41.0317 -74.5725 259° West 393 452 28,700 1,980 Climbing New York Center
10:58PM 41.0106 -74.7114 259° West 393 452 30,900 1,740 Climbing New York Center
10:59PM 40.9892 -74.8478 258° West 388 447 32,200 1,440 Climbing New York Center
11:00PM 40.9633 -74.9889 256° West 388 447 33,800 900 Climbing New York Center
11:01PM 40.9272 -75.1269 251° West 396 456 34,000 60 Climbing New York Center
11:02PM 40.9128 -75.2881 263° West 403 464 34,000  Level New York Center
11:03PM 40.9153 -75.4336 271° West 408 470 34,000  Level New York Center
11:04PM 40.9178 -75.5847 271° West 402 463 34,000  Level New York Center
11:05PM 40.9281 -75.7367 275° West 407 468 34,000  Level New York Center
11:06PM 40.9447 -75.8861 278° West 407 468 34,000  Level New York Center
11:07PM 40.9589 -76.0328 277° West 407 468 34,000  Level New York Center
11:08PM 40.9731 -76.1850 277° West 412 474 34,000  Level New York Center
11:09PM 40.9892 -76.3322 278° West 412 474 34,000  Level New York Center
11:10PM 41.0028 -76.4844 277° West 407 468 34,000  Level New York Center
11:11PM 41.0186 -76.6261 278° West 407 468 34,000  Level New York Center
11:12PM 41.0322 -76.7731 277° West 407 468 34,000  Level New York Center
11:13PM 41.0453 -76.9228 277° West 407 468 34,000  Level New York Center
11:14PM 41.0606 -77.0675 278° West 407 468 34,000  Level New York Center
11:15PM 41.0717 -77.2117 276° West 407 468 34,000  Level New York Center
11:17PM 41.0958 -77.4597 277° West 398 458 34,000  Level Cleveland Center
11:18PM 41.1089 -77.6053 277° West 398 458 34,000  Level Cleveland Center
11:19PM 41.1217 -77.7511 277° West 399 459 34,000  Level Cleveland Center
11:20PM 41.1344 -77.8986 277° West 403 464 34,000  Level Cleveland Center
11:21PM 41.1500 -78.0736 277° West 402 463 34,000  Level Cleveland Center
11:22PM 41.1617 -78.2208 276° West 403 464 34,000  Level Cleveland Center
11:23PM 41.1758 -78.3692 277° West 408 470 34,000  Level Cleveland Center
11:24PM 41.1828 -78.5089 274° West 391 450 34,000  Level Cleveland Center
11:25PM 41.1950 -78.6514 277° West 390 449 34,000  Level Cleveland Center
11:26PM 41.2061 -78.7969 276° West 397 457 34,000  Level Cleveland Center
11:27PM 41.2197 -78.9419 277° West 398 458 34,000  Level Cleveland Center
11:28PM 41.2433 -79.1053 281° West 399 459 34,000  Level Cleveland Center
11:29PM 41.2631 -79.2517 280° West 403 464 34,000  Level Cleveland Center
11:30PM 41.2817 -79.3850 281° West 418 481 34,000  Level Cleveland Center
11:31PM 41.3011 -79.5283 280° West 404 465 34,000 360 Level Cleveland Center
11:32PM 41.3244 -79.6942 281° West 408 470 34,800 960 Climbing Cleveland Center
11:33PM 41.3433 -79.8433 280° West 409 471 36,000 540 Climbing Cleveland Center
11:34PM 41.3644 -79.9983 280° West 399 459 36,000  Level Cleveland Center
11:35PM 41.3833 -80.1450 280° West 405 466 36,000  Level Cleveland Center
11:36PM 41.4028 -80.2931 280° West 408 470 36,000  Level Cleveland Center
11:37PM 41.4231 -80.4456 280° West 411 473 36,000  Level Cleveland Center
11:38PM 41.4417 -80.5939 280° West 406 467 36,000  Level Cleveland Center
11:39PM 41.4603 -80.7433 279° West 406 467 36,000  Level Cleveland Center
11:40PM 41.4792 -80.8906 280° West 402 463 36,000  Level Cleveland Center
11:41PM 41.4972 -81.0389 279° West 404 465 36,000  Level Cleveland Center
11:42PM 41.5153 -81.1894 279° West 410 472 36,000  Level Cleveland Center
11:43PM 41.5331 -81.3381 279° West 404 465 36,000  Level Cleveland Center
11:44PM 41.5500 -81.4850 279° West 402 463 36,000  Level Cleveland Center
11:45PM 41.5681 -81.6306 279° West 399 459 36,000  Level Cleveland Center
11:46PM 41.5856 -81.7781 279° West 403 464 36,000  Level Cleveland Center
11:47PM 41.6058 -81.9506 279° West 402 463 36,000  Level Cleveland Center
11:48PM 41.6231 -82.1006 279° West 406 467 36,000  Level Cleveland Center
11:49PM 41.6400 -82.2522 279° West 409 471 36,000  Level Cleveland Center
11:50PM 41.6556 -82.3775 279° West 409 471 36,000  Level Cleveland Center
11:51PM 41.6744 -82.5589 278° West 410 472 36,000  Level Cleveland Center
11:52PM 41.6917 -82.7092 279° West 411 473 36,000  Level Cleveland Center
11:53PM 41.7086 -82.8606 279° West 411 473 36,000  Level Cleveland Center
11:54PM 41.7239 -83.0119 278° West 410 472 36,000  Level Cleveland Center
11:55PM 41.7403 -83.1642 278° West 412 474 36,000  Level Cleveland Center
11:56PM 41.7567 -83.3183 278° West 417 480 36,000  Level Cleveland Center
11:57PM 41.7711 -83.4714 277° West 414 476 36,000  Level Cleveland Center
11:58PM 41.7864 -83.6256 278° West 416 479 36,000  Level Cleveland Center
11:59PM 41.8017 -83.7789 278° West 415 478 36,000 540 Level Cleveland Center
12:00AM 41.8158 -83.9336 277° West 416 479 37,100 960 Climbing Cleveland Center
12:01AM 41.8311 -84.0869 278° West 416 479 38,000 420 Climbing Cleveland Center
12:02AM 41.8447 -84.2425 277° West 419 482 38,000  Level Cleveland Center
12:07AM 41.9150 -85.0213 277° West 421 484 38,000  Level FlightAware ADS-B (KMDH)
12:10AM 41.9527 -85.4569 277° West 423 487 38,000  Level FlightAware ADS-B
12:11AM 41.9640 -85.5923 276° West 420 483 38,000  Level FlightAware ADS-B (KMDH)
12:12AM 41.9714 -85.6806 276° West 417 480 38,000  Level FlightAware ADS-B (KMDH)
12:12AM 41.9800 -85.7873 276° West 416 479 38,000  Level FlightAware ADS-B (KMDH)
12:13AM 41.9845 -85.8426 276° West 414 476 38,000  Level FlightAware ADS-B (KPWK)
12:13AM 41.9915 -85.9310 276° West 412 474 38,000  Level FlightAware ADS-B
12:14AM 42.0000 -86.0430 276° West 410 472 38,000  Level FlightAware ADS-B (KMDH)
12:15AM 42.0069 -86.1367 276° West 410 472 38,000  Level FlightAware ADS-B
12:15AM 42.0105 -86.1876 276° West 412 474 38,000 -120 Level FlightAware ADS-B
12:16AM 42.0184 -86.3015 275° West 414 476 37,900 -960 Descending FlightAware ADS-B
12:16AM 42.0256 -86.3982 276° West 420 483 36,900 -1,500 Descending FlightAware ADS-B
12:17AM 42.0324 -86.4832 276° West 417 480 36,000 -1,500 Descending FlightAware ADS-B (KPWK)
12:18AM 42.0417 -86.6022 276° West 404 465 35,000 -1,560 Descending FlightAware ADS-B (KPWK)
12:18AM 42.0498 -86.7106 276° West 416 479 33,900 -1,560 Descending FlightAware ADS-B
12:19AM 42.0576 -86.8130 276° West 410 472 32,800 -2,340 Descending FlightAware ADS-B
12:20AM 42.0642 -86.9038 276° West 413 475 31,000 -3,120 Descending FlightAware ADS-B
12:20AM 42.0697 -86.9805 276° West 411 473 29,500 -2,880 Descending FlightAware ADS-B (KMDH)
12:21AM 42.0766 -87.0791 275° West 415 478 27,700 -2,640 Descending FlightAware ADS-B (KPWK)
12:21AM 42.0832 -87.1755 275° West 399 459 26,200 -2,160 Descending FlightAware ADS-B (KPWK)
12:22AM 42.0893 -87.2640 275° West 392 451 25,000 -1,560 Descending FlightAware ADS-B
12:22AM 42.0946 -87.3441 275° West 395 455 24,400 -960 Descending FlightAware ADS-B (KPWK)
12:23AM 42.0997 -87.4222 275° West 391 450 24,000 -360 Descending FlightAware ADS-B (KMDH)
12:24AM 42.1056 -87.5106 275° West 392 451 24,000  Level FlightAware ADS-B
12:24AM 42.1122 -87.6098 275° West 391 450 24,000  Level FlightAware ADS-B
12:25AM 42.1182 -87.7042 275° West 391 450 24,000 -1,020 Level FlightAware ADS-B
12:26AM 42.1244 -87.8058 275° West 377 434 22,600 -2,820 Descending FlightAware ADS-B (KMDH)
12:26AM 42.1299 -87.9012 274° West 376 433 20,100 -3,660 Descending FlightAware ADS-B (KMDH)
12:27AM 42.1355 -87.9974 274° West 370 426 17,900 -2,580 Descending FlightAware ADS-B
12:28AM 42.1408 -88.0883 275° West 362 417 16,700 -1,500 Descending FlightAware ADS-B
12:28AM 42.1459 -88.1751 275° West 362 417 16,000 -600 Descending FlightAware ADS-B (KMDH)
12:29AM 42.1517 -88.2755 275° West 363 418 15,900 -480 Descending FlightAware ADS-B (KMDH)
12:30AM 42.1566 -88.3604 274° West 355 409 15,400 -1,920 Descending FlightAware ADS-B (KMDH)
12:30AM 42.1607 -88.4328 274° West 344 396 13,600 -3,240 Descending FlightAware ADS-B
12:31AM 42.1639 -88.4911 274° West 334 384 11,900 -2,220 Descending FlightAware ADS-B
12:31AM 42.1689 -88.5822 274° West 285 328 11,000 -840 Descending FlightAware ADS-B
12:32AM 42.1717 -88.6377 274° West 253 291 10,900 -120 Descending FlightAware ADS-B (KMDH)
12:33AM 42.1746 -88.6972 274° West 273 314 10,900  Level FlightAware ADS-B (KPWK)
12:33AM 42.1779 -88.7643 274° West 276 318 10,900 -240 Level FlightAware ADS-B (KPWK)
12:34AM 42.1765 -88.7959 267° West 277 319 10,700 -1,020 Descending FlightAware ADS-B (KPWK)
12:34AM 42.1706 -88.8165 249° West 280 322 10,400 -900 Descending FlightAware ADS-B
12:34AM 42.1462 -88.8796 242° Southwest 259 298 9,900 -900 Descending FlightAware ADS-B (KPWK)
12:35AM 42.1352 -88.9078 242° Southwest 251 289 9,500 -1,440 Descending FlightAware ADS-B (KPWK)
12:35AM 42.1291 -88.9232 242° Southwest 248 285 9,000 -1,680 Descending FlightAware ADS-B (KPWK)
12:36AM 42.1075 -88.9751 241° Southwest 247 284 8,100 -1,860 Descending FlightAware ADS-B (KPWK)
12:36AM 42.0953 -89.0040 240° Southwest 249 287 7,400 -1,680 Descending FlightAware ADS-B (KPWK)
12:37AM 42.0700 -89.0636 240° Southwest 250 288 6,200 -840 Descending Chicago Center
12:38AM 42.0622 -89.1358 262° West 219 252 5,900 -1,020 Descending Chicago Center
12:39AM 42.0522 -89.2256 261° West 203 234 4,200 -1,440 Descending Chicago Center
12:40AM 42.0472 -89.3050 265° West 208 239 3,000 -600 Descending Chicago Center
12:41AM 42.0608 -89.3567 290° West 193 222 3,000  Level Chicago Center
12:42AM 42.1033 -89.3317 24° Northeast 192 221 3,000  Level Chicago Center